Time;durP1;ratioP1;P1;durP2;ratioP2;P2;SDS_P1;SDS_P2;PMS_P1;PMS_P2;Temp;Humidity;BMP_temperature;BMP_pressure;BME280_temperature;BME280_humidity;BME280_pressure;Samples;Min_cycle;Max_cycle;Signal;HPM_P1;HPM_P2
2021/03/27 00:01:01;;;;;;;39.30;20.82;;;;;;;5.44;67.21;100699.89;1687113;85;21378;-72
2021/03/27 00:03:43;;;;;;;51.73;26.77;;;;;;;5.45;67.37;100705.97;1686806;84;21222;-71
2021/03/27 00:06:18;;;;;;;49.83;27.25;;;;;;;5.42;67.26;100707.31;1651296;86;21189;-73
2021/03/27 00:09:04;;;;;;;50.00;25.90;;;;;;;5.41;67.18;100704.28;1670518;82;72531;-94
2021/03/27 00:12:04;;;;;;;45.20;24.65;;;;;;;5.42;68.33;100695.55;1663375;83;21124;-93
2021/03/27 00:14:50;;;;;;;41.08;23.83;;;;;;;5.42;67.45;100701.64;1654495;84;21233;-94
2021/03/27 00:17:39;;;;;;;47.53;25.80;;;;;;;5.42;67.19;100695.55;1646491;86;21234;-93
2021/03/27 00:20:44;;;;;;;44.05;23.00;;;;;;;5.42;67.60;100699.47;1680368;84;21120;-95
2021/03/27 00:23:50;;;;;;;39.88;22.60;;;;;;;5.42;68.15;100696.86;1686574;80;74280;-66
2021/03/27 00:26:26;;;;;;;53.05;26.70;;;;;;;5.42;68.61;100692.49;1709331;82;22116;-67
2021/03/27 00:29:12;;;;;;;49.35;26.37;;;;;;;5.44;68.06;100695.11;1709046;82;21305;-65
2021/03/27 00:31:48;;;;;;;46.48;26.57;;;;;;;5.42;68.17;100691.63;1696491;82;21229;-66
2021/03/27 00:34:19;;;;;;;45.92;23.85;;;;;;;5.41;67.68;100700.36;1687573;82;21214;-67
2021/03/27 00:36:53;;;;;;;45.38;24.45;;;;;;;5.39;67.71;100696.89;1691360;83;21208;-66
2021/03/27 00:39:28;;;;;;;54.08;27.58;;;;;;;5.39;67.47;100702.11;1621649;82;21231;-74
2021/03/27 00:42:07;;;;;;;44.33;21.77;;;;;;;5.37;67.85;100693.42;1639812;86;21242;-72
2021/03/27 00:44:40;;;;;;;40.73;20.95;;;;;;;5.36;67.33;100697.78;1625293;86;22088;-72
2021/03/27 00:47:12;;;;;;;38.25;22.20;;;;;;;5.37;67.52;100698.64;1608157;88;21252;-71
2021/03/27 00:49:48;;;;;;;41.55;21.55;;;;;;;5.37;68.08;100698.20;1569027;90;21240;-73
2021/03/27 00:52:17;;;;;;;41.53;22.17;;;;;;;5.37;69.00;100703.87;1622647;86;21245;-72
2021/03/27 00:54:50;;;;;;;49.53;25.35;;;;;;;5.37;69.38;100702.11;1673239;83;21406;-66
2021/03/27 00:57:22;;;;;;;45.65;24.43;;;;;;;5.36;68.08;100696.89;1701655;82;21229;-66
2021/03/27 01:00:02;;;;;;;46.10;25.27;;;;;;;5.37;68.10;100698.64;1699030;82;21176;-66
2021/03/27 01:02:35;;;;;;;60.45;27.15;;;;;;;5.37;67.91;100701.25;1695107;82;21220;-68
2021/03/27 01:05:22;;;;;;;49.80;25.63;;;;;;;5.41;68.02;100702.98;1877650;76;26691;-68
2021/03/27 01:07:56;;;;;;;41.40;22.05;;;;;;;5.35;68.22;100701.25;1778843;75;21206;-74
2021/03/27 01:11:01;;;;;;;32.73;18.05;;;;;;;5.35;68.42;100701.70;1695105;83;21491;-74
2021/03/27 01:13:49;;;;;;;45.15;23.32;;;;;;;5.41;69.58;100694.70;1828074;76;28667;-73
2021/03/27 01:16:22;;;;;;;44.80;23.57;;;;;;;5.37;69.11;100694.28;1715733;83;21236;-73
2021/03/27 01:19:00;;;;;;;44.70;23.75;;;;;;;5.37;67.98;100701.25;1750764;81;21680;-72
2021/03/27 01:21:36;;;;;;;43.75;24.23;;;;;;;5.35;67.76;100697.78;1748301;81;21211;-72
2021/03/27 01:24:11;;;;;;;37.38;19.87;;;;;;;5.36;68.07;100696.89;1759847;78;21212;-66
2021/03/27 01:26:53;;;;;;;45.10;23.67;;;;;;;5.34;67.75;100698.67;1780579;79;21569;-67
2021/03/27 01:29:38;;;;;;;41.68;23.10;;;;;;;5.32;68.04;100690.84;1757539;81;21165;-68
2021/03/27 01:32:30;;;;;;;47.13;24.98;;;;;;;5.31;68.92;100698.67;1779753;79;21345;-68
2021/03/27 01:35:07;;;;;;;47.73;24.85;;;;;;;5.29;69.31;100697.39;1752167;80;21194;-65
2021/03/27 01:38:08;;;;;;;41.02;22.40;;;;;;;5.28;69.24;100697.39;1739189;80;21223;-66
2021/03/27 01:41:11;;;;;;;42.17;22.85;;;;;;;5.26;68.05;100695.64;1699708;81;22271;-73
2021/03/27 01:43:54;;;;;;;44.75;23.77;;;;;;;5.28;68.21;100698.70;1658842;84;21177;-74
2021/03/27 01:46:37;;;;;;;43.98;24.60;;;;;;;5.29;68.40;100689.97;1677158;83;21300;-72
2021/03/27 01:49:38;;;;;;;38.35;21.02;;;;;;;5.30;68.95;100690.42;1657619;84;21222;-71
2021/03/27 01:52:36;;;;;;;35.03;19.55;;;;;;;5.30;68.08;100695.64;1683763;83;21216;-71
2021/03/27 01:55:35;;;;;;;33.88;19.32;;;;;;;5.32;68.65;100701.28;1806038;77;21287;-67
2021/03/27 01:58:37;;;;;;;44.75;23.65;;;;;;;5.33;69.45;100699.53;1820957;78;21189;-67
2021/03/27 02:01:15;;;;;;;41.83;22.02;;;;;;;5.33;69.56;100699.53;1799282;78;21250;-69
2021/03/27 02:04:01;;;;;;;46.75;24.50;;;;;;;5.34;68.80;100703.89;1824392;78;21589;-66
2021/03/27 02:06:41;;;;;;;47.40;23.77;;;;;;;5.34;68.61;100707.81;1811657;77;25821;-68
2021/03/27 02:09:24;;;;;;;35.13;20.70;;;;;;;5.32;68.53;100703.03;1724031;80;21182;-74
2021/03/27 02:12:10;;;;;;;40.60;22.65;;;;;;;5.33;69.61;100709.98;1739289;81;21248;-75
2021/03/27 02:15:32;;;;;;;45.40;22.77;;;;;;;5.32;70.01;100708.26;1745762;80;21174;-75
2021/03/27 02:18:05;;;;;;;43.52;20.90;;;;;;;5.32;68.21;100704.34;1739755;81;21229;-74
2021/03/27 02:21:09;;;;;;;46.70;24.35;;;;;;;5.32;68.97;100707.81;1745158;81;21245;-75
2021/03/27 02:24:17;;;;;;;52.20;25.12;;;;;;;5.33;69.03;100709.98;1771718;78;21631;-68
2021/03/27 02:27:03;;;;;;;49.25;24.52;;;;;;;5.31;68.03;100711.73;1784138;80;21227;-67
2021/03/27 02:29:45;;;;;;;46.55;23.70;;;;;;;5.29;68.61;100716.09;1778062;80;21307;-68
2021/03/27 02:32:28;;;;;;;34.78;19.27;;;;;;;5.29;69.05;100713.48;1775738;80;21188;-67
2021/03/27 02:35:07;;;;;;;42.30;22.55;;;;;;;5.25;69.01;100720.48;1763460;79;21199;-69
2021/03/27 02:37:53;;;;;;;53.50;26.15;;;;;;;5.23;68.88;100719.17;1776970;80;21164;-68
2021/03/27 02:40:32;;;;;;;47.78;25.20;;;;;;;5.22;70.25;100716.15;1738735;79;21297;-75
2021/03/27 02:43:21;;;;;;;44.77;25.57;;;;;;;5.20;70.50;100715.28;1732398;81;21219;-72
2021/03/27 02:46:15;;;;;;;28.62;16.15;;;;;;;5.18;68.92;100711.81;1745766;80;21588;-71
2021/03/27 02:48:57;;;;;;;37.85;18.35;;;;;;;5.13;68.78;100708.36;1745254;80;21663;-72
2021/03/27 02:51:44;;;;;;;42.27;23.00;;;;;;;5.11;70.13;100710.11;1754767;80;21146;-71
2021/03/27 02:54:42;;;;;;;47.70;25.17;;;;;;;5.09;69.84;100714.47;1775499;79;21193;-68
2021/03/27 02:57:22;;;;;;;51.63;25.43;;;;;;;5.09;70.13;100717.53;1798359;79;21178;-70
2021/03/27 03:00:23;;;;;;;43.70;22.90;;;;;;;5.05;69.58;100713.61;1799233;79;21618;-69
2021/03/27 03:03:17;;;;;;;44.10;24.72;;;;;;;5.04;69.01;100714.94;1799351;79;21192;-73
2021/03/27 03:05:51;;;;;;;51.73;26.90;;;;;;;5.00;69.80;100718.44;1734203;82;21207;-70
2021/03/27 03:08:38;;;;;;;50.85;25.57;;;;;;;4.98;70.55;100716.27;1784453;78;21213;31
2021/03/27 03:11:26;;;;;;;46.02;23.15;;;;;;;4.94;69.30;100722.37;1767007;80;21800;-73
2021/03/27 03:14:05;;;;;;;40.55;19.73;;;;;;;4.88;68.96;100721.97;1731047;82;21225;-73
2021/03/27 03:17:03;;;;;;;40.70;22.13;;;;;;;4.86;69.03;100725.47;1799142;79;21191;-72
2021/03/27 03:20:00;;;;;;;41.30;23.10;;;;;;;4.83;68.95;100719.38;1769089;79;21196;-73
2021/03/27 03:22:45;;;;;;;40.67;21.97;;;;;;;4.82;69.58;100721.54;1799641;79;21163;-74
2021/03/27 03:25:17;;;;;;;44.98;23.75;;;;;;;4.81;69.38;100719.82;1761635;78;21597;-72
2021/03/27 03:28:15;;;;;;;40.20;20.32;;;;;;;4.82;70.35;100724.16;1742785;81;21165;-71
2021/03/27 03:31:12;;;;;;;46.13;24.98;;;;;;;4.81;69.76;100732.01;1721576;83;21183;-71
2021/03/27 03:34:06;;;;;;;50.00;25.25;;;;;;;4.79;69.97;100728.09;1658125;86;21239;-72
2021/03/27 03:36:53;;;;;;;45.20;25.23;;;;;;;4.81;69.38;100723.73;1860896;76;26660;-72
2021/03/27 03:39:48;;;;;;;36.03;20.85;;;;;;;4.75;69.85;100730.27;1792905;78;21214;-69
2021/03/27 03:42:42;;;;;;;46.35;25.48;;;;;;;4.74;70.05;100725.94;1782352;80;21365;-70
2021/03/27 03:45:22;;;;;;;52.33;26.35;;;;;;;4.73;70.37;100725.49;1767217;79;21190;-70
2021/03/27 03:48:38;;;;;;;47.38;24.32;;;;;;;4.72;69.88;100728.13;1777471;79;21154;-71
2021/03/27 03:51:40;;;;;;;36.28;19.05;;;;;;;4.71;70.38;100732.90;1772602;79;21636;-71
2021/03/27 03:54:48;;;;;;;42.95;20.90;;;;;;;4.70;70.65;100738.56;1778745;79;21256;-70
2021/03/27 03:57:28;;;;;;;43.80;22.07;;;;;;;4.69;71.64;100724.20;1777355;79;21438;-71
2021/03/27 04:00:23;;;;;;;46.77;24.37;;;;;;;4.68;70.74;100736.39;1776283;79;21233;-71
2021/03/27 04:03:13;;;;;;;38.28;21.27;;;;;;;4.66;70.08;100740.73;1764437;79;21122;-72
2021/03/27 04:06:00;;;;;;;45.20;24.07;;;;;;;4.62;69.92;100739.00;1777260;79;21126;-72
2021/03/27 04:08:55;;;;;;;45.73;23.80;;;;;;;4.60;70.40;100745.97;1724258;78;21268;-66
2021/03/27 04:12:00;;;;;;;39.00;21.35;;;;;;;4.55;70.58;100742.06;1681761;83;24071;-64
2021/03/27 04:14:59;;;;;;;33.10;16.90;;;;;;;4.55;70.86;100740.76;1669050;84;21249;-65
2021/03/27 04:17:43;;;;;;;33.58;18.02;;;;;;;4.53;70.75;100746.86;1674740;85;21741;-66
2021/03/27 04:20:24;;;;;;;39.50;21.77;;;;;;;4.56;72.22;100744.27;1682777;83;21123;-65
2021/03/27 04:23:02;;;;;;;39.55;22.87;;;;;;;4.57;72.31;100749.45;1698497;81;21124;-77
2021/03/27 04:25:38;;;;;;;45.20;25.17;;;;;;;4.59;72.50;100751.63;1764914;80;21198;-76
2021/03/27 04:28:18;;;;;;;52.00;25.95;;;;;;;4.61;71.82;100754.23;1732235;82;21600;-76
2021/03/27 04:31:09;;;;;;;49.20;27.47;;;;;;;4.60;71.05;100747.27;1733390;82;21146;-76
2021/03/27 04:34:25;;;;;;;29.48;17.20;;;;;;;4.60;70.50;100754.69;1729954;82;21962;-74
2021/03/27 04:37:04;;;;;;;51.13;26.00;;;;;;;4.56;70.56;100752.09;1731804;81;21660;-80
2021/03/27 04:39:50;;;;;;;43.90;23.67;;;;;;;4.56;70.47;100750.78;1738288;79;21257;-67
2021/03/27 04:42:45;;;;;;;44.25;23.47;;;;;;;4.59;70.44;100761.20;1746870;81;21178;-66
2021/03/27 04:45:48;;;;;;;36.10;19.82;;;;;;;4.66;70.64;100758.14;1713632;82;21728;-67
2021/03/27 04:48:41;;;;;;;42.75;22.10;;;;;;;4.84;71.21;100756.33;1709108;82;21212;-67
2021/03/27 04:51:33;;;;;;;49.75;23.95;;;;;;;5.12;70.18;100760.14;1730295;82;21222;-70
2021/03/27 04:54:30;;;;;;;41.23;23.02;;;;;;;5.42;69.71;100756.94;1749646;79;21211;-81
2021/03/27 04:57:27;;;;;;;46.23;24.05;;;;;;;5.82;68.40;100760.58;1754400;80;21200;-81
2021/03/27 05:00:18;;;;;;;44.03;24.72;;;;;;;6.27;67.35;100761.12;1764488;80;21138;-81
2021/03/27 05:03:01;;;;;;;39.10;22.45;;;;;;;6.65;65.48;100758.58;1744205;80;21173;-80
2021/03/27 05:05:45;;;;;;;38.50;22.25;;;;;;;7.01;64.00;100762.95;1674222;83;21259;-79
2021/03/27 05:08:17;;;;;;;34.40;20.10;;;;;;;7.27;63.10;100763.50;1706777;82;21659;-78
2021/03/27 05:11:13;;;;;;;35.08;19.65;;;;;;;7.69;62.90;100761.60;1723538;81;21168;-80
2021/03/27 05:13:49;;;;;;;38.40;22.65;;;;;;;8.15;61.75;100764.34;1693638;83;21193;-81
2021/03/27 05:16:29;;;;;;;39.65;22.30;;;;;;;8.68;59.63;100766.08;1845530;76;28309;-79
2021/03/27 05:22:33;;;;;;;37.85;21.82;;;;;;;9.39;56.80;100762.41;1790725;78;21167;-69
2021/03/27 05:25:37;;;;;;;34.63;20.02;;;;;;;9.84;55.85;100770.13;1740842;80;21166;-69
2021/03/27 05:28:29;;;;;;;39.60;21.52;;;;;;;10.29;55.82;100768.63;1712066;82;21211;-67
2021/03/27 05:31:31;;;;;;;35.00;22.70;;;;;;;10.80;52.16;100766.42;1716284;82;21138;-68
2021/03/27 05:34:10;;;;;;;33.85;19.80;;;;;;;11.21;50.32;100769.65;1719921;81;21252;-66
2021/03/27 05:36:44;;;;;;;36.90;21.97;;;;;;;11.57;50.29;100765.48;1724014;79;22343;-77
2021/03/27 05:39:44;;;;;;;36.13;21.77;;;;;;;11.88;49.32;100770.70;1721582;81;21168;-80
2021/03/27 05:42:49;;;;;;;34.58;21.52;;;;;;;12.10;47.38;100777.44;1731929;81;21311;-79
2021/03/27 05:45:29;;;;;;;45.58;21.68;;;;;;;12.22;46.06;100774.41;1737036;81;21204;-74
2021/03/27 05:48:27;;;;;;;38.30;21.97;;;;;;;12.42;45.55;100775.50;1723018;81;21639;-75
2021/03/27 05:51:32;;;;;;;35.03;21.02;;;;;;;12.64;44.62;100773.84;1697863;79;21597;-72
2021/03/27 05:54:39;;;;;;;35.50;20.72;;;;;;;12.89;43.88;100772.97;1692555;83;21216;-72
2021/03/27 05:57:38;;;;;;;37.10;20.52;;;;;;;13.11;43.47;100773.03;1685815;84;21180;-69
2021/03/27 06:00:36;;;;;;;37.50;21.50;;;;;;;13.43;42.83;100775.38;1686917;84;21260;-70
2021/03/27 06:03:19;;;;;;;36.83;20.97;;;;;;;13.82;42.04;100776.48;1645354;84;21195;-69
2021/03/27 06:06:21;;;;;;;40.52;22.17;;;;;;;14.04;40.70;100778.67;1681574;82;21379;-75
2021/03/27 06:09:25;;;;;;;42.03;21.50;;;;;;;14.25;40.79;100770.30;1694869;84;21227;-76
2021/03/27 06:12:21;;;;;;;48.68;21.90;;;;;;;14.48;40.37;100774.62;1678251;84;23449;-75
2021/03/27 06:15:08;;;;;;;33.10;19.82;;;;;;;14.87;40.14;100772.98;1561339;91;21761;-77
2021/03/27 06:18:04;;;;;;;30.48;19.57;;;;;;;15.23;38.45;100781.06;1573287;91;21684;-76
2021/03/27 06:20:59;;;;;;;38.73;20.02;;;;;;;15.51;37.88;100786.42;1595112;85;21239;-72
2021/03/27 06:23:57;;;;;;;28.23;18.35;;;;;;;15.83;36.87;100775.61;1852186;76;22846;-72
2021/03/27 06:27:13;;;;;;;30.25;18.45;;;;;;;15.87;36.72;100776.31;1822022;78;21138;-71
2021/03/27 06:30:22;;;;;;;37.17;20.25;;;;;;;16.13;35.77;100773.24;1812548;78;21185;-73
2021/03/27 06:33:15;;;;;;;29.07;19.25;;;;;;;16.54;35.85;100777.38;1815157;77;21542;-71
2021/03/27 06:35:59;;;;;;;32.05;19.05;;;;;;;17.06;35.54;100780.00;1782587;78;21199;-74
2021/03/27 06:39:03;;;;;;;29.32;19.48;;;;;;;17.34;34.24;100783.82;1686343;82;21649;-74
2021/03/27 06:42:06;;;;;;;30.32;19.55;;;;;;;17.55;33.54;100778.66;1711731;82;21278;-75
2021/03/27 06:44:49;;;;;;;30.00;19.23;;;;;;;17.71;33.53;100777.30;1704140;82;21268;-75
2021/03/27 06:47:52;;;;;;;29.87;20.72;;;;;;;17.82;34.42;100784.73;1700813;82;21206;-72
2021/03/27 06:50:39;;;;;;;31.57;19.95;;;;;;;18.06;32.22;100785.14;1712286;79;21318;-71
2021/03/27 06:53:21;;;;;;;28.25;19.30;;;;;;;17.98;32.60;100788.23;1742303;81;21747;-72
2021/03/27 06:56:14;;;;;;;31.70;20.92;;;;;;;18.26;33.98;100785.29;1734235;81;21177;-72
2021/03/27 06:58:59;;;;;;;36.38;21.30;;;;;;;18.52;33.18;100789.11;1730424;82;21318;-73
2021/03/27 07:02:05;;;;;;;33.80;19.92;;;;;;;18.97;31.38;100795.28;1710834;82;21160;-72
2021/03/27 07:05:14;;;;;;;27.70;18.73;;;;;;;19.26;30.59;100785.95;1709295;82;21264;-72
2021/03/27 07:08:11;;;;;;;28.45;18.27;;;;;;;19.58;31.18;100792.38;1710424;82;21634;-72
2021/03/27 07:11:19;;;;;;;31.45;20.65;;;;;;;19.88;31.44;100793.60;1727159;79;21264;-75
2021/03/27 07:14:30;;;;;;;28.42;20.10;;;;;;;20.13;30.78;100796.85;1738486;81;21202;-75
2021/03/27 07:17:47;;;;;;;28.27;20.40;;;;;;;20.23;29.56;100794.41;1705644;82;26041;-76
2021/03/27 07:21:05;;;;;;;29.00;19.30;;;;;;;20.25;29.55;100796.02;1647601;86;21654;-76
2021/03/27 07:24:06;;;;;;;28.38;18.90;;;;;;;20.19;28.71;100801.77;1628258;86;21258;-76
2021/03/27 07:27:13;;;;;;;29.70;20.80;;;;;;;20.30;30.15;100800.58;1641436;80;21229;-72
2021/03/27 07:30:11;;;;;;;33.35;22.05;;;;;;;20.78;29.69;100797.38;1662674;85;21236;-71
2021/03/27 07:33:18;;;;;;;29.32;20.60;;;;;;;21.07;28.56;100798.03;1617298;86;21262;-70
2021/03/27 07:36:09;;;;;;;44.05;21.87;;;;;;;21.23;28.70;100794.25;1623849;86;21164;-73
2021/03/27 07:38:53;;;;;;;27.95;20.88;;;;;;;21.43;28.78;100799.07;1585537;86;21244;-71
2021/03/27 07:41:50;;;;;;;28.75;21.12;;;;;;;21.79;26.97;100801.40;1661394;82;21183;-76
2021/03/27 07:44:53;;;;;;;30.08;21.30;;;;;;;22.10;26.88;100807.16;1706296;82;21218;-77
2021/03/27 07:47:58;;;;;;;26.77;18.77;;;;;;;22.32;26.62;100809.98;1701267;82;21213;-77
2021/03/27 07:50:43;;;;;;;32.67;21.65;;;;;;;22.54;26.83;100808.34;1671033;84;21254;-75
2021/03/27 07:53:41;;;;;;;32.83;19.52;;;;;;;22.82;25.62;100803.91;1668087;84;21186;-78
2021/03/27 07:56:54;;;;;;;33.13;22.17;;;;;;;23.18;25.38;100800.66;1726648;81;21616;-74
2021/03/27 07:59:43;;;;;;;33.10;24.00;;;;;;;23.46;24.81;100793.92;1717665;81;21415;-73
2021/03/27 08:02:44;;;;;;;34.70;23.85;;;;;;;23.46;24.24;100799.80;1731067;80;21127;-73
2021/03/27 08:05:35;;;;;;;36.90;25.23;;;;;;;23.63;24.17;100796.61;1729128;81;21199;-72
2021/03/27 08:08:42;;;;;;;27.27;20.82;;;;;;;23.84;24.01;100798.55;1727040;81;21189;-74
2021/03/27 08:11:31;;;;;;;30.95;20.77;;;;;;;23.82;25.13;100793.79;1690050;83;21582;-77
2021/03/27 08:14:29;;;;;;;32.70;22.37;;;;;;;23.65;23.71;100793.31;1718890;82;21371;-75
2021/03/27 08:17:19;;;;;;;36.73;24.43;;;;;;;23.65;22.88;100787.93;1693104;84;21201;-74
2021/03/27 08:20:15;;;;;;;33.08;22.00;;;;;;;23.58;23.77;100793.45;1674929;83;21217;-76
2021/03/27 08:23:04;;;;;;;39.58;25.12;;;;;;;23.75;24.79;100795.28;1654588;84;21265;-75
2021/03/27 08:26:01;;;;;;;34.75;26.00;;;;;;;24.08;23.78;100791.12;1683827;83;21152;-72
2021/03/27 08:28:53;;;;;;;34.60;24.25;;;;;;;24.14;23.06;100791.12;1642952;85;23200;-72
2021/03/27 08:31:37;;;;;;;36.33;26.52;;;;;;;24.25;22.48;100791.07;1650162;85;21248;-71
2021/03/27 08:34:45;;;;;;;40.43;25.30;;;;;;;24.37;23.31;100793.22;1650177;85;21234;-71
2021/03/27 08:37:42;;;;;;;40.23;26.65;;;;;;;24.63;23.47;100788.83;1650543;85;21220;-71
2021/03/27 08:44:05;;;;;;;35.45;24.25;;;;;;;25.02;21.78;100781.81;1796019;79;22752;-73
2021/03/27 08:46:51;;;;;;;35.65;25.43;;;;;;;24.97;21.66;100782.72;1761649;80;22182;-75
2021/03/27 08:49:48;;;;;;;35.73;24.32;;;;;;;24.88;20.69;100780.83;1757731;80;21312;-76
2021/03/27 08:52:51;;;;;;;35.90;24.72;;;;;;;24.68;20.86;100787.92;1763458;80;21477;-76
2021/03/27 08:55:44;;;;;;;31.87;22.45;;;;;;;24.00;23.07;100784.20;1723746;81;21249;-75
2021/03/27 08:58:34;;;;;;;38.28;25.77;;;;;;;23.16;22.81;100758.28;1662480;84;21283;-71
2021/03/27 09:01:25;;;;;;;38.95;26.40;;;;;;;22.96;23.38;100779.12;1681076;84;21213;-74
2021/03/27 09:04:23;;;;;;;37.48;26.73;;;;;;;22.78;22.96;100781.44;1694956;84;21222;-72
2021/03/27 09:07:12;;;;;;;42.48;25.00;;;;;;;22.82;22.34;100778.40;1689553;84;21151;-71
2021/03/27 09:10:10;;;;;;;39.63;24.20;;;;;;;22.85;23.44;100777.80;1693618;84;21181;-71
2021/03/27 09:13:01;;;;;;;37.75;24.57;;;;;;;22.89;23.25;100773.87;1590247;87;21303;-77
2021/03/27 09:15:50;;;;;;;38.65;25.40;;;;;;;22.98;22.16;100774.02;1637185;86;21793;-76
2021/03/27 09:18:48;;;;;;;33.10;24.65;;;;;;;22.93;22.05;100765.95;1622369;87;21252;-78
2021/03/27 09:21:41;;;;;;;40.55;24.15;;;;;;;22.80;22.60;100765.58;1615737;88;21206;-72
2021/03/27 09:24:40;;;;;;;35.55;23.12;;;;;;;22.77;22.14;100757.73;1600680;85;23729;-74
2021/03/27 09:27:37;;;;;;;29.05;19.87;;;;;;;22.65;22.69;100768.11;1624593;84;22075;-74
2021/03/27 09:30:51;;;;;;;32.70;21.70;;;;;;;22.05;24.95;100770.45;1631018;86;21199;-76
2021/03/27 09:33:29;;;;;;;34.70;22.10;;;;;;;21.54;25.75;100775.04;1627915;86;21821;-77
2021/03/27 09:36:11;;;;;;;35.95;22.17;;;;;;;20.92;23.43;100778.53;1602929;88;21281;-77
2021/03/27 09:39:08;;;;;;;33.53;21.52;;;;;;;20.32;24.33;100777.27;1626877;88;21826;-76
2021/03/27 09:41:57;;;;;;;32.35;20.25;;;;;;;19.96;25.53;100786.41;1660220;82;21224;-75
2021/03/27 09:45:10;;;;;;;28.23;19.42;;;;;;;19.67;25.52;100779.80;1699457;83;21223;-73
2021/03/27 09:47:50;;;;;;;30.15;21.27;;;;;;;19.26;25.95;100781.95;1701905;83;22058;-73
2021/03/27 09:50:52;;;;;;;50.08;22.85;;;;;;;19.28;25.56;100784.05;1710399;83;21672;-75
2021/03/27 09:54:10;;;;;;;32.58;20.65;;;;;;;19.50;25.70;100772.36;1707970;83;21201;-74
2021/03/27 09:56:43;;;;;;;33.13;20.30;;;;;;;20.01;26.46;100778.93;1698513;80;21229;-71
2021/03/27 09:59:29;;;;;;;38.20;21.25;;;;;;;20.56;23.68;100776.58;1691788;83;21646;-70
2021/03/27 10:02:30;;;;;;;25.32;16.70;;;;;;;20.84;22.40;100766.64;1611371;83;21362;-72
2021/03/27 10:05:23;;;;;;;32.63;18.98;;;;;;;21.10;22.73;100762.99;1691092;84;21225;-71
2021/03/27 10:08:11;;;;;;;39.98;21.70;;;;;;;21.50;23.23;100762.83;1688985;84;21171;-72
2021/03/27 10:11:02;;;;;;;28.45;19.70;;;;;;;21.88;21.93;100756.48;1697443;81;21290;-75
2021/03/27 10:14:00;;;;;;;;;;;;;;;22.26;21.99;100760.80;1686210;83;21191;-77
2021/03/27 10:17:01;;;;;;;24.87;16.37;;;;;;;22.50;20.88;100758.08;1676998;84;21374;-74
2021/03/27 10:19:51;;;;;;;32.33;20.30;;;;;;;22.59;22.12;100758.71;1624262;86;21727;-76
2021/03/27 10:22:37;;;;;;;30.32;19.25;;;;;;;23.09;20.67;100762.44;1794600;79;22680;-77
2021/03/27 10:25:41;;;;;;;31.10;19.40;;;;;;;23.31;20.93;100761.59;1764721;80;21115;-77
2021/03/27 10:28:28;;;;;;;27.45;19.00;;;;;;;23.63;19.52;100761.66;1618840;87;21411;-70
2021/03/27 10:31:10;;;;;;;36.28;21.57;;;;;;;23.32;19.99;100766.47;1593785;88;21662;-70
2021/03/27 10:33:43;;;;;;;30.35;20.60;;;;;;;22.43;20.37;100765.36;1592467;89;21233;-71
2021/03/27 10:36:47;;;;;;;31.75;20.92;;;;;;;21.46;22.24;100777.41;1593927;88;22312;-69
2021/03/27 10:39:47;;;;;;;24.75;17.37;;;;;;;21.24;22.23;100778.56;1603043;88;21254;-70
2021/03/27 10:42:50;;;;;;;29.80;17.32;;;;;;;20.97;22.50;100772.85;1636679;83;21238;-76
2021/03/27 10:45:34;;;;;;;;;;;;;;;20.88;24.77;100776.17;1645447;85;21254;-78
2021/03/27 10:48:13;;;;;;;33.78;20.35;;;;;;;21.06;23.67;100770.02;1711373;83;20331;-77
2021/03/27 10:51:09;;;;;;;29.23;19.75;;;;;;;21.26;21.53;100759.23;1686604;83;21663;-78
2021/03/27 10:54:31;;;;;;;30.80;18.50;;;;;;;21.53;23.09;100757.27;1831000;76;22815;-76
2021/03/27 10:57:20;;;;;;;28.27;17.42;;;;;;;21.54;22.58;100764.32;1778932;76;21203;-68
2021/03/27 11:00:26;;;;;;;32.00;19.92;;;;;;;21.13;22.21;100754.73;1736473;81;21288;-70
2021/03/27 11:03:17;;;;;;;25.57;17.65;;;;;;;21.18;21.99;100753.55;1700039;81;21187;-71
2021/03/27 11:06:23;;;;;;;27.32;16.82;;;;;;;21.14;22.92;100752.44;1731505;81;21175;-68
2021/03/27 11:09:37;;;;;;;23.85;16.57;;;;;;;21.36;23.43;100752.23;1742755;81;21165;-70
2021/03/27 11:12:49;;;;;;;21.07;14.35;;;;;;;21.54;21.24;100755.43;1709559;80;21206;-77
2021/03/27 11:15:31;;;;;;;27.45;18.10;;;;;;;21.28;22.39;100754.13;1743285;81;21442;-76
2021/03/27 11:18:38;;;;;;;26.05;16.85;;;;;;;21.21;22.19;100756.00;1751625;81;21159;-77
2021/03/27 11:21:45;;;;;;;27.10;18.20;;;;;;;21.15;21.95;100746.59;1731736;82;21825;-78
2021/03/27 11:24:32;;;;;;;26.85;17.37;;;;;;;20.87;21.11;100742.35;1742118;81;21203;-77
2021/03/27 11:27:28;;;;;;;26.82;16.73;;;;;;;20.68;22.39;100745.44;1732201;78;21591;-75
2021/03/27 11:30:05;;;;;;;26.20;15.70;;;;;;;20.52;22.24;100756.30;1767954;79;21292;-74
2021/03/27 11:32:54;;;;;;;21.35;14.40;;;;;;;20.56;21.82;100749.82;1793268;79;21210;-73
2021/03/27 11:35:27;;;;;;;22.93;15.30;;;;;;;20.42;21.34;100742.71;1780368;79;21202;-75
2021/03/27 11:38:10;;;;;;;22.00;13.43;;;;;;;20.49;22.02;100743.15;1789133;78;21174;-76
2021/03/27 11:41:22;;;;;;;30.10;17.23;;;;;;;20.63;22.66;100744.91;1782181;79;21178;-68
2021/03/27 11:44:17;;;;;;;23.45;13.95;;;;;;;20.80;23.49;100735.69;1747039;81;21400;-71
2021/03/27 11:46:59;;;;;;;25.75;13.90;;;;;;;20.95;21.82;100748.00;1751172;81;21229;-71
2021/03/27 11:49:48;;;;;;;18.02;13.03;;;;;;;20.79;21.01;100747.38;1748292;81;21231;-73
2021/03/27 11:52:41;;;;;;;16.83;10.30;;;;;;;20.17;22.81;100742.19;1711571;82;21197;-72
2021/03/27 11:55:26;;;;;;;19.75;13.20;;;;;;;20.17;22.81;100742.19;1706916;83;21222;-72
2021/03/27 12:01:39;;;;;;;21.45;14.58;;;;;;;19.84;21.24;100743.48;1817202;76;21690;-72
2021/03/27 12:04:25;;;;;;;24.00;15.28;;;;;;;19.44;23.20;100733.16;1806390;78;21182;-73
2021/03/27 12:07:22;;;;;;;23.45;14.55;;;;;;;19.35;21.96;100738.64;1817273;76;21610;-70
2021/03/27 12:10:08;;;;;;;22.70;12.70;;;;;;;19.30;22.59;100730.04;1821188;78;21178;-73
2021/03/27 12:12:57;;;;;;;22.17;12.63;;;;;;;19.21;22.37;100734.63;1691613;76;21209;-71
2021/03/27 12:16:00;;;;;;;27.67;13.98;;;;;;;19.32;23.02;100738.81;1686319;84;21217;-71
2021/03/27 12:18:57;;;;;;;23.15;14.60;;;;;;;19.54;24.40;100744.13;1682052;84;21198;-68
2021/03/27 12:21:37;;;;;;;24.40;14.18;;;;;;;19.65;22.19;100732.27;1726642;82;21476;-70
2021/03/27 12:24:40;;;;;;;21.05;14.13;;;;;;;19.50;22.30;100732.29;1704926;82;21214;-70
2021/03/27 12:27:30;;;;;;;27.65;13.38;;;;;;;19.34;22.86;100724.89;1722879;78;21655;-77
2021/03/27 12:30:23;;;;;;;25.88;14.10;;;;;;;19.27;23.41;100736.92;1684820;83;21203;-78
2021/03/27 12:33:16;;;;;;;20.80;12.68;;;;;;;19.32;24.40;100733.95;1683785;83;21142;-76
2021/03/27 12:35:56;;;;;;;25.15;12.68;;;;;;;19.38;22.36;100733.09;1660054;85;21196;-80
2021/03/27 12:39:20;;;;;;;17.40;10.80;;;;;;;19.42;22.11;100734.61;1695221;83;21243;-79
2021/03/27 12:42:00;;;;;;;30.45;14.40;;;;;;;19.42;21.81;100735.95;1715526;79;21369;-70
2021/03/27 12:44:40;;;;;;;25.92;14.58;;;;;;;19.38;22.29;100731.76;1754290;81;21178;-70
2021/03/27 12:47:22;;;;;;;21.93;12.53;;;;;;;19.28;21.72;100727.48;1705387;82;21630;-69
2021/03/27 12:50:02;;;;;;;18.98;12.60;;;;;;;19.28;22.18;100734.66;1748663;80;21203;-69
2021/03/27 12:52:48;;;;;;;21.87;12.73;;;;;;;19.27;22.22;100720.90;1755833;80;21701;-71
2021/03/27 12:55:34;;;;;;;18.05;11.22;;;;;;;19.21;21.50;100723.95;1757796;80;21209;-70
2021/03/27 12:58:13;;;;;;;19.32;12.18;;;;;;;19.04;22.19;100730.38;1786704;77;21207;-78
2021/03/27 13:00:47;;;;;;;21.52;10.08;;;;;;;18.88;21.65;100726.46;1810512;78;21187;-77
2021/03/27 13:03:43;;;;;;;14.35;10.08;;;;;;;18.78;21.56;100727.52;1777488;78;21158;-77
2021/03/27 13:06:34;;;;;;;15.95;9.70;;;;;;;18.80;21.32;100728.77;1795892;78;21650;-77
2021/03/27 13:09:26;;;;;;;21.80;13.32;;;;;;;18.70;22.46;100727.56;1767568;80;21402;-79
2021/03/27 13:12:13;;;;;;;16.57;10.55;;;;;;;18.64;23.65;100720.33;1775458;78;21732;-73
2021/03/27 13:14:51;;;;;;;18.12;10.30;;;;;;;18.57;24.57;100724.81;1731711;81;21607;-72